DLH1HF EDDL-EDDF
Flight info
| Callsign | DLH1HF |
|---|---|
| Flight time | 0h 30m |
| Altitude | 23000 |
| Route | COL5Z COL T911 ROLIS ROLIS5A |
| Aircraft | A359/H-SDE2E3GHIJ3J4J5LM1ORWXY/LB1D1 |
Departure
| Time | 2026-05-05 16:37 |
|---|---|
| Airport | Düsseldorf Airport (EDDL) |
Arrival
| Time | 2026-05-05 17:07 |
|---|---|
| Airport | Frankfurt Main Airport (EDDF) |
| Time | Latitude | Longitude | Altitude | Speed | Heading |
|---|---|---|---|---|---|
| 2026-05-05 16:16 | 51.27998 | 6.76163 | 130 ft | 0 kts | 119° |
| 2026-05-05 16:28 | 51.28000 | 6.76158 | 129 ft | 3 kts | 119° |
| 2026-05-05 16:28 | 51.28012 | 6.76120 | 133 ft | 4 kts | 102° |
| 2026-05-05 16:28 | 51.28010 | 6.76085 | 134 ft | 4 kts | 66° |
| 2026-05-05 16:29 | 51.27996 | 6.76052 | 128 ft | 4 kts | 27° |
| 2026-05-05 16:29 | 51.27971 | 6.76045 | 134 ft | 4 kts | 353° |
| 2026-05-05 16:29 | 51.27956 | 6.76048 | 134 ft | 0 kts | 358° |
| 2026-05-05 16:31 | 51.27962 | 6.76048 | 134 ft | 1 kts | 358° |
| 2026-05-05 16:31 | 51.28003 | 6.76046 | 134 ft | 11 kts | 356° |
| 2026-05-05 16:32 | 51.28066 | 6.76045 | 134 ft | 9 kts | 354° |
| 2026-05-05 16:32 | 51.28101 | 6.75992 | 136 ft | 6 kts | 277° |
| 2026-05-05 16:32 | 51.28077 | 6.75915 | 136 ft | 12 kts | 236° |
| 2026-05-05 16:32 | 51.28025 | 6.75801 | 135 ft | 14 kts | 233° |
| 2026-05-05 16:33 | 51.27961 | 6.75667 | 135 ft | 16 kts | 232° |
| 2026-05-05 16:33 | 51.27892 | 6.75523 | 134 ft | 13 kts | 232° |
| 2026-05-05 16:33 | 51.27845 | 6.75408 | 126 ft | 10 kts | 255° |
| 2026-05-05 16:33 | 51.27870 | 6.75330 | 126 ft | 4 kts | 327° |
| 2026-05-05 16:34 | 51.27872 | 6.75329 | 126 ft | 0 kts | 328° |
| 2026-05-05 16:35 | 51.27896 | 6.75306 | 128 ft | 7 kts | 331° |
| 2026-05-05 16:35 | 51.27961 | 6.75257 | 125 ft | 11 kts | 347° |
| 2026-05-05 16:35 | 51.28014 | 6.75313 | 121 ft | 9 kts | 52° |
| 2026-05-05 16:36 | 51.28023 | 6.75333 | 126 ft | 11 kts | 52° |
| 2026-05-05 16:36 | 51.28221 | 6.75744 | 135 ft | 80 kts | 53° |
| 2026-05-05 16:36 | 51.28683 | 6.76717 | 135 ft | 138 kts | 52° |
| 2026-05-05 16:36 | 51.29341 | 6.78090 | 456 ft | 159 kts | 49° |
| 2026-05-05 16:37 | 51.29999 | 6.79433 | 1210 ft | 154 kts | 49° |
| 2026-05-05 16:37 | 51.30661 | 6.80746 | 2010 ft | 150 kts | 50° |
| 2026-05-05 16:37 | 51.31331 | 6.82149 | 2405 ft | 166 kts | 54° |
| 2026-05-05 16:37 | 51.32020 | 6.83741 | 2805 ft | 181 kts | 55° |
| 2026-05-05 16:38 | 51.32769 | 6.85463 | 3179 ft | 196 kts | 54° |
| 2026-05-05 16:38 | 51.33590 | 6.87265 | 3627 ft | 206 kts | 53° |
| 2026-05-05 16:38 | 51.34485 | 6.89120 | 4092 ft | 217 kts | 52° |
| 2026-05-05 16:38 | 51.35212 | 6.91365 | 4350 ft | 241 kts | 76° |
| 2026-05-05 16:39 | 51.35243 | 6.94126 | 4759 ft | 257 kts | 98° |
| 2026-05-05 16:39 | 51.34884 | 6.96963 | 5381 ft | 264 kts | 108° |
| 2026-05-05 16:39 | 51.34055 | 6.99604 | 6062 ft | 269 kts | 128° |
| 2026-05-05 16:39 | 51.32677 | 7.01559 | 6802 ft | 271 kts | 147° |
| 2026-05-05 16:40 | 51.31079 | 7.03151 | 7599 ft | 272 kts | 150° |
| 2026-05-05 16:40 | 51.29444 | 7.04687 | 8465 ft | 273 kts | 152° |
| 2026-05-05 16:40 | 51.27792 | 7.06221 | 9299 ft | 277 kts | 151° |
| 2026-05-05 16:40 | 51.26154 | 7.07901 | 10011 ft | 285 kts | 141° |
| 2026-05-05 16:41 | 51.24867 | 7.10419 | 10429 ft | 305 kts | 122° |
| 2026-05-05 16:41 | 51.23822 | 7.13497 | 10768 ft | 325 kts | 118° |
| 2026-05-05 16:41 | 51.22777 | 7.16816 | 11105 ft | 343 kts | 118° |
| 2026-05-05 16:41 | 51.21699 | 7.20245 | 11555 ft | 357 kts | 118° |
| 2026-05-05 16:42 | 51.20569 | 7.23818 | 12178 ft | 363 kts | 118° |
| 2026-05-05 16:42 | 51.19425 | 7.27436 | 12900 ft | 369 kts | 118° |
| 2026-05-05 16:42 | 51.18260 | 7.31111 | 13651 ft | 374 kts | 118° |
| 2026-05-05 16:42 | 51.17025 | 7.34773 | 14335 ft | 377 kts | 121° |
| 2026-05-05 16:43 | 51.15660 | 7.38361 | 15010 ft | 381 kts | 123° |
| 2026-05-05 16:43 | 51.14260 | 7.41956 | 15639 ft | 384 kts | 123° |
| 2026-05-05 16:43 | 51.12843 | 7.45587 | 16321 ft | 388 kts | 123° |
| 2026-05-05 16:43 | 51.11413 | 7.49251 | 16985 ft | 391 kts | 123° |
| 2026-05-05 16:44 | 51.09975 | 7.52946 | 17625 ft | 395 kts | 123° |
| 2026-05-05 16:44 | 51.08540 | 7.56612 | 18232 ft | 397 kts | 124° |
| 2026-05-05 16:44 | 51.06851 | 7.60077 | 18803 ft | 398 kts | 134° |
| 2026-05-05 16:44 | 51.04926 | 7.63264 | 19383 ft | 401 kts | 136° |
| 2026-05-05 16:45 | 51.02934 | 7.66393 | 19963 ft | 404 kts | 136° |
| 2026-05-05 16:45 | 51.00915 | 7.69512 | 20582 ft | 407 kts | 137° |
| 2026-05-05 16:45 | 50.98875 | 7.72642 | 21174 ft | 410 kts | 137° |
| 2026-05-05 16:45 | 50.96809 | 7.75795 | 21779 ft | 413 kts | 137° |
| 2026-05-05 16:46 | 50.94727 | 7.78964 | 22346 ft | 417 kts | 137° |
| 2026-05-05 16:46 | 50.92627 | 7.82151 | 22743 ft | 419 kts | 137° |
| 2026-05-05 16:46 | 50.90527 | 7.85332 | 22826 ft | 430 kts | 137° |
| 2026-05-05 16:46 | 50.88329 | 7.88658 | 22822 ft | 442 kts | 137° |
| 2026-05-05 16:47 | 50.86101 | 7.92025 | 22824 ft | 442 kts | 137° |
| 2026-05-05 16:47 | 50.83879 | 7.95379 | 22826 ft | 442 kts | 137° |
| 2026-05-05 16:47 | 50.81651 | 7.98736 | 22829 ft | 442 kts | 137° |
| 2026-05-05 16:47 | 50.79420 | 8.02092 | 22829 ft | 442 kts | 138° |
| 2026-05-05 16:48 | 50.77194 | 8.05436 | 22828 ft | 442 kts | 138° |
| 2026-05-05 16:48 | 50.74965 | 8.08781 | 22830 ft | 442 kts | 138° |
| 2026-05-05 16:48 | 50.72742 | 8.12112 | 22829 ft | 441 kts | 138° |
| 2026-05-05 16:48 | 50.70513 | 8.15446 | 22828 ft | 441 kts | 138° |
| 2026-05-05 16:49 | 50.68314 | 8.18729 | 22829 ft | 441 kts | 138° |
| 2026-05-05 16:49 | 50.66086 | 8.22050 | 22827 ft | 441 kts | 138° |
| 2026-05-05 16:49 | 50.64172 | 8.24899 | 22825 ft | 441 kts | 138° |
| 2026-05-05 16:49 | 50.61937 | 8.28222 | 22807 ft | 441 kts | 138° |
| 2026-05-05 16:50 | 50.59704 | 8.31540 | 22805 ft | 441 kts | 138° |
| 2026-05-05 16:50 | 50.57471 | 8.34854 | 22810 ft | 441 kts | 138° |
| 2026-05-05 16:50 | 50.55247 | 8.38148 | 22573 ft | 436 kts | 138° |
| 2026-05-05 16:50 | 50.53074 | 8.41365 | 22276 ft | 434 kts | 138° |
| 2026-05-05 16:51 | 50.50877 | 8.44612 | 22015 ft | 433 kts | 138° |
| 2026-05-05 16:51 | 50.48686 | 8.47846 | 21749 ft | 431 kts | 138° |
| 2026-05-05 16:51 | 50.46524 | 8.51035 | 21320 ft | 422 kts | 138° |
| 2026-05-05 16:51 | 50.44403 | 8.54159 | 20807 ft | 415 kts | 138° |
| 2026-05-05 16:52 | 50.42311 | 8.57235 | 20286 ft | 410 kts | 138° |
| 2026-05-05 16:52 | 50.40241 | 8.60274 | 19758 ft | 405 kts | 138° |
| 2026-05-05 16:52 | 50.38197 | 8.63271 | 19237 ft | 400 kts | 138° |
| 2026-05-05 16:52 | 50.36179 | 8.66230 | 18715 ft | 396 kts | 138° |
| 2026-05-05 16:53 | 50.34177 | 8.69162 | 18196 ft | 392 kts | 137° |
| 2026-05-05 16:53 | 50.32218 | 8.72027 | 17624 ft | 388 kts | 137° |
| 2026-05-05 16:53 | 50.30232 | 8.74928 | 17091 ft | 384 kts | 138° |
| 2026-05-05 16:53 | 50.28291 | 8.77758 | 16621 ft | 379 kts | 138° |
| 2026-05-05 16:54 | 50.26392 | 8.80526 | 16139 ft | 378 kts | 138° |
| 2026-05-05 16:54 | 50.24612 | 8.83537 | 15615 ft | 379 kts | 128° |
| 2026-05-05 16:54 | 50.23369 | 8.87195 | 15018 ft | 385 kts | 110° |
| 2026-05-05 16:54 | 50.22914 | 8.91237 | 14408 ft | 372 kts | 92° |
| 2026-05-05 16:55 | 50.23316 | 8.95142 | 13809 ft | 360 kts | 74° |
| 2026-05-05 16:55 | 50.24141 | 8.98753 | 13151 ft | 347 kts | 71° |
| 2026-05-05 16:55 | 50.24980 | 9.02225 | 12487 ft | 335 kts | 71° |
| 2026-05-05 16:55 | 50.25783 | 9.05581 | 11858 ft | 325 kts | 72° |
| 2026-05-05 16:56 | 50.26552 | 9.08832 | 11283 ft | 314 kts | 72° |
| 2026-05-05 16:56 | 50.27281 | 9.11938 | 10780 ft | 302 kts | 72° |
| 2026-05-05 16:56 | 50.27987 | 9.14968 | 10284 ft | 292 kts | 72° |
| 2026-05-05 16:56 | 50.28392 | 9.17963 | 9880 ft | 274 kts | 94° |
| 2026-05-05 16:57 | 50.27961 | 9.20723 | 9501 ft | 254 kts | 121° |
| 2026-05-05 16:57 | 50.26817 | 9.22703 | 8954 ft | 242 kts | 150° |
| 2026-05-05 16:57 | 50.25254 | 9.23478 | 8412 ft | 237 kts | 179° |
| 2026-05-05 16:57 | 50.23669 | 9.22868 | 7977 ft | 239 kts | 209° |
| 2026-05-05 16:58 | 50.22446 | 9.21122 | 7610 ft | 240 kts | 230° |
| 2026-05-05 16:58 | 50.21453 | 9.19014 | 7161 ft | 240 kts | 233° |
| 2026-05-05 16:58 | 50.20509 | 9.16889 | 6672 ft | 237 kts | 233° |
| 2026-05-05 16:58 | 50.19575 | 9.14784 | 6167 ft | 234 kts | 233° |
| 2026-05-05 16:59 | 50.18652 | 9.12709 | 5675 ft | 231 kts | 234° |
| 2026-05-05 16:59 | 50.17747 | 9.10685 | 5201 ft | 229 kts | 233° |
| 2026-05-05 16:59 | 50.16837 | 9.08650 | 5001 ft | 229 kts | 234° |
| 2026-05-05 16:59 | 50.16181 | 9.06376 | 4990 ft | 233 kts | 253° |
| 2026-05-05 17:00 | 50.15856 | 9.03911 | 4988 ft | 233 kts | 258° |
| 2026-05-05 17:00 | 50.15627 | 9.01495 | 4987 ft | 231 kts | 261° |
| 2026-05-05 17:00 | 50.15522 | 9.00339 | 4984 ft | 230 kts | 258° |
| 2026-05-05 17:00 | 50.15324 | 8.98866 | 4987 ft | 230 kts | 253° |
| 2026-05-05 17:01 | 50.14840 | 8.96494 | 4988 ft | 230 kts | 248° |
| 2026-05-05 17:01 | 50.14285 | 8.94152 | 4987 ft | 229 kts | 247° |
| 2026-05-05 17:01 | 50.13724 | 8.91829 | 4987 ft | 230 kts | 247° |
| 2026-05-05 17:01 | 50.13173 | 8.89521 | 4986 ft | 230 kts | 248° |
| 2026-05-05 17:02 | 50.12622 | 8.87177 | 4928 ft | 230 kts | 249° |
| 2026-05-05 17:02 | 50.12089 | 8.84841 | 4686 ft | 227 kts | 249° |
| 2026-05-05 17:02 | 50.11542 | 8.82531 | 4373 ft | 227 kts | 248° |
| 2026-05-05 17:02 | 50.10994 | 8.80261 | 4014 ft | 220 kts | 248° |
| 2026-05-05 17:03 | 50.10476 | 8.78081 | 3702 ft | 210 kts | 249° |
| 2026-05-05 17:03 | 50.09980 | 8.75993 | 3437 ft | 202 kts | 249° |
| 2026-05-05 17:03 | 50.09507 | 8.74012 | 3191 ft | 188 kts | 249° |
| 2026-05-05 17:03 | 50.09067 | 8.72164 | 2927 ft | 177 kts | 250° |
| 2026-05-05 17:04 | 50.08647 | 8.70402 | 2682 ft | 170 kts | 250° |
| 2026-05-05 17:04 | 50.08245 | 8.68719 | 2457 ft | 162 kts | 250° |
| 2026-05-05 17:04 | 50.07871 | 8.67151 | 2246 ft | 151 kts | 250° |
| 2026-05-05 17:04 | 50.07519 | 8.65675 | 2048 ft | 140 kts | 250° |
| 2026-05-05 17:05 | 50.07185 | 8.64272 | 1877 ft | 138 kts | 249° |
| 2026-05-05 17:05 | 50.06850 | 8.62871 | 1709 ft | 138 kts | 250° |
| 2026-05-05 17:05 | 50.06516 | 8.61469 | 1498 ft | 138 kts | 250° |
| 2026-05-05 17:05 | 50.06181 | 8.60066 | 1314 ft | 138 kts | 250° |
| 2026-05-05 17:06 | 50.05842 | 8.58667 | 1122 ft | 139 kts | 249° |
| 2026-05-05 17:06 | 50.05497 | 8.57272 | 948 ft | 138 kts | 249° |
| 2026-05-05 17:06 | 50.05173 | 8.55853 | 744 ft | 139 kts | 249° |
| 2026-05-05 17:06 | 50.04835 | 8.54449 | 553 ft | 139 kts | 249° |
| 2026-05-05 17:07 | 50.04500 | 8.53034 | 379 ft | 140 kts | 250° |
| 2026-05-05 17:07 | 50.04186 | 8.51717 | 353 ft | 112 kts | 249° |
| 2026-05-05 17:07 | 50.04009 | 8.50976 | 329 ft | 50 kts | 250° |
| 2026-05-05 17:07 | 50.03899 | 8.50533 | 324 ft | 35 kts | 241° |
| 2026-05-05 17:08 | 50.03768 | 8.50286 | 321 ft | 17 kts | 220° |
| 2026-05-05 17:08 | 50.03688 | 8.50192 | 322 ft | 14 kts | 202° |
| 2026-05-05 17:08 | 50.03629 | 8.50234 | 327 ft | 9 kts | 108° |
| 2026-05-05 17:08 | 50.03643 | 8.50346 | 329 ft | 13 kts | 71° |
| 2026-05-05 17:09 | 50.03676 | 8.50488 | 329 ft | 14 kts | 70° |
| 2026-05-05 17:09 | 50.03713 | 8.50641 | 332 ft | 19 kts | 69° |
| 2026-05-05 17:09 | 50.03779 | 8.50912 | 336 ft | 35 kts | 69° |
| 2026-05-05 17:09 | 50.03858 | 8.51246 | 349 ft | 31 kts | 70° |
| 2026-05-05 17:10 | 50.03932 | 8.51556 | 353 ft | 30 kts | 69° |
| 2026-05-05 17:10 | 50.04006 | 8.51860 | 353 ft | 30 kts | 70° |
| 2026-05-05 17:10 | 50.04076 | 8.52155 | 354 ft | 28 kts | 70° |
| 2026-05-05 17:10 | 50.04142 | 8.52430 | 360 ft | 27 kts | 69° |
| 2026-05-05 17:11 | 50.04205 | 8.52694 | 361 ft | 26 kts | 69° |
| 2026-05-05 17:11 | 50.04270 | 8.52967 | 366 ft | 27 kts | 70° |
| 2026-05-05 17:11 | 50.04334 | 8.53231 | 371 ft | 25 kts | 69° |
| 2026-05-05 17:11 | 50.04394 | 8.53504 | 381 ft | 26 kts | 81° |
| 2026-05-05 17:12 | 50.04412 | 8.53778 | 382 ft | 26 kts | 84° |
| 2026-05-05 17:12 | 50.04431 | 8.54059 | 382 ft | 26 kts | 84° |
| 2026-05-05 17:12 | 50.04451 | 8.54342 | 380 ft | 24 kts | 84° |
| 2026-05-05 17:12 | 50.04436 | 8.54568 | 373 ft | 13 kts | 112° |
| 2026-05-05 17:13 | 50.04426 | 8.54601 | 376 ft | 0 kts | 117° |
| 2026-05-05 17:13 | 50.04413 | 8.54634 | 373 ft | 7 kts | 123° |
| 2026-05-05 17:13 | 50.04383 | 8.54691 | 375 ft | 10 kts | 133° |
| 2026-05-05 17:14 | 50.04315 | 8.54770 | 370 ft | 15 kts | 152° |
| 2026-05-05 17:14 | 50.04213 | 8.54828 | 363 ft | 14 kts | 161° |
| 2026-05-05 17:14 | 50.04156 | 8.54860 | 366 ft | 8 kts | 159° |
| 2026-05-05 17:14 | 50.04144 | 8.54867 | 366 ft | 0 kts | 159° |
| 2026-05-05 17:15 | 50.04106 | 8.54889 | 361 ft | 8 kts | 159° |
| 2026-05-05 17:15 | 50.04048 | 8.54922 | 365 ft | 9 kts | 159° |
| 2026-05-05 17:16 | 50.03987 | 8.54958 | 366 ft | 10 kts | 159° |
| 2026-05-05 17:16 | 50.03893 | 8.55015 | 365 ft | 17 kts | 159° |
| 2026-05-05 17:16 | 50.03859 | 8.55150 | 360 ft | 15 kts | 73° |
| 2026-05-05 17:16 | 50.03905 | 8.55352 | 360 ft | 26 kts | 69° |
| 2026-05-05 17:17 | 50.03979 | 8.55660 | 360 ft | 32 kts | 70° |
| 2026-05-05 17:17 | 50.04057 | 8.55987 | 363 ft | 32 kts | 69° |
| 2026-05-05 17:17 | 50.04134 | 8.56307 | 362 ft | 30 kts | 70° |
| 2026-05-05 17:17 | 50.04206 | 8.56610 | 366 ft | 30 kts | 69° |
| 2026-05-05 17:18 | 50.04277 | 8.56906 | 371 ft | 29 kts | 70° |
| 2026-05-05 17:18 | 50.04346 | 8.57197 | 372 ft | 29 kts | 70° |
| 2026-05-05 17:18 | 50.04418 | 8.57495 | 372 ft | 30 kts | 70° |
| 2026-05-05 17:18 | 50.04481 | 8.57760 | 376 ft | 18 kts | 69° |
| 2026-05-05 17:19 | 50.04504 | 8.57856 | 377 ft | 0 kts | 70° |
| 2026-05-05 17:20 | 50.04510 | 8.57882 | 376 ft | 9 kts | 70° |
| 2026-05-05 17:20 | 50.04538 | 8.57995 | 376 ft | 12 kts | 63° |
| 2026-05-05 17:20 | 50.04619 | 8.58011 | 369 ft | 15 kts | 341° |
| 2026-05-05 17:20 | 50.04723 | 8.57952 | 369 ft | 17 kts | 340° |
| 2026-05-05 17:21 | 50.04821 | 8.57888 | 372 ft | 15 kts | 322° |
| 2026-05-05 17:21 | 50.04870 | 8.57778 | 372 ft | 9 kts | 315° |
| 2026-05-05 17:21 | 50.04916 | 8.57769 | 370 ft | 2 kts | 18° |
| 2026-05-05 17:22 | 50.04935 | 8.57781 | 368 ft | 0 kts | 21° |
| 2026-05-05 17:22 | 50.04939 | 8.57783 | 368 ft | 0 kts | 21° |
| 2026-05-05 17:22 | 50.04940 | 8.57784 | 368 ft | 0 kts | 21° |